Latest Weather Observations for Coolangatta

IDN60801

Issued at 4:13 pm EST Tuesday 20 April 2021 (issued every 10 minutes, with the page automatically refreshed every 10 minutes)

About weather observations | Map of weather stations | Latest weather observations for NSW | Other Formats
Station Details ID: 040717 Name: COOLANGATTA Lat: -28.17 Lon: 153.51 Height: 4.0 m
Data from the previous 72 hours. | See also: Recent months at Coolangatta

Observations at Coolangatta are collected in the Queensland time zone, which does not include daylight savings during the summer period. Therefore 'Rain since 9am' totals and other values are based on the Queensland time zone.

Date/Time
EST
Temp
°C
App
Temp
°C
Dew
Point
°C
Rel
Hum
%
Delta-T
°C
Wind Press
QNH
hPa
Press
MSL
hPa
Rain since
9am
mm
Dir  Spd
km/h
Gust
km/h
Spd
kts
Gust
kts
20/04:00pm 25.6 22.9 11.7 42 7.9 NNW 17 22 9 12 1014.0 1013.9 0.0
20/03:30pm 25.9 23.3 12.0 42 8.0 NW 17 24 9 13 1014.2 1014.1 0.0
20/03:00pm 26.2 23.7 12.3 42 8.0 NW 17 26 9 14 1014.0 1013.9 0.0
20/02:30pm 26.2 23.4 12.6 43 7.9 NW 19 30 10 16 1014.2 1014.1 0.0
20/02:00pm 26.4 23.8 13.2 44 7.7 NNW 19 26 10 14 1014.4 1014.3 0.0
20/01:30pm 26.1 23.2 12.9 44 7.7 NW 20 35 11 19 1014.7 1014.6 0.0
20/01:00pm 26.0 23.8 13.2 45 7.5 WNW 17 26 9 14 1015.1 1015.0 0.0
20/12:30pm 25.7 23.2 13.5 46 7.2 NW 19 32 10 17 1015.5 1015.4 0.0
20/12:00pm 25.1 21.8 13.9 49 6.6 N 24 32 13 17 1016.3 1016.2 0.0
20/11:30am 25.4 23.3 13.6 48 6.9 NW 17 24 9 13 1016.5 1016.4 0.0
20/11:00am 24.9 22.5 13.8 50 6.5 NNW 19 28 10 15 1017.0 1017.0 0.0
20/10:30am 24.7 22.3 13.9 51 6.4 NNW 19 28 10 15 1017.5 1017.5 0.0
20/10:00am 24.1 21.7 13.9 53 6.0 NW 19 28 10 15 1017.8 1017.8 0.0
20/09:30am 23.6 21.6 13.8 54 5.7 NW 17 24 9 13 1018.0 1018.0 0.0
20/09:00am 22.5 20.8 14.6 61 4.6 WNW 17 24 9 13 1018.3 1018.3 0.0
20/08:30am 21.8 21.9 15.4 67 3.8 WNW 9 13 5 7 1018.5 1018.5 0.0
20/08:00am 20.4 21.1 16.2 77 2.5 W 7 9 4 5 1018.3 1018.3 0.0
20/07:30am 17.6 18.0 15.2 86 1.4 SW 7 9 4 5 1018.0 1018.0 0.0
20/07:00am 16.8 18.7 15.7 93 0.6 CALM 0 0 0 0 1017.8 1017.8 0.0
20/06:30am 15.1 14.8 14.3 95 0.5 WSW 9 9 5 5 1017.7 1017.7 0.0
20/06:00am 14.5 14.5 13.5 94 0.6 WSW 6 7 3 4 1017.6 1017.6 0.0
20/05:30am 14.3 13.9 13.0 92 0.7 WSW 7 7 4 4 1017.3 1017.3 0.0
20/05:00am 15.0 14.8 13.7 92 0.7 W 7 9 4 5 1017.1 1017.1 0.0
20/04:30am 16.0 15.0 14.7 92 0.7 W 13 17 7 9 1016.9 1016.9 0.0
20/04:00am 14.4 13.9 13.8 96 0.3 SW 9 11 5 6 1016.7 1016.7 0.0
20/03:30am 14.2 14.1 13.4 95 0.4 SW 6 9 3 5 1016.6 1016.5 0.0
20/03:00am 14.2 14.1 13.2 94 0.6 WSW 6 7 3 4 1016.7 1016.7 0.0
20/02:30am 14.6 14.4 13.6 94 0.6 WSW 7 9 4 5 1016.8 1016.8 0.0
20/02:00am 14.8 15.2 13.8 94 0.6 WSW 4 6 2 3 1017.0 1017.0 0.0
20/01:30am 14.7 14.7 13.6 93 0.6 WSW 6 9 3 5 1017.1 1017.1 0.0
20/01:00am 14.9 14.9 13.6 92 0.7 WSW 6 7 3 4 1017.4 1017.4 0.0
20/12:30am 15.4 16.3 14.1 92 0.7 WSW 2 7 1 4 1017.5 1017.5 0.0
20/12:00am 15.2 16.4 13.9 92 0.7 CALM 0 0 0 0 1017.7 1017.7 0.0
 
Date/Time
EST
Temp
°C
App
Temp
°C
Dew
Point
°C
Rel
Hum
%
Delta-T
°C
Wind Press
QNH
hPa
Press
MSL
hPa
Rain since
9am
mm
Dir  Spd
km/h
Gust
km/h
Spd
kts
Gust
kts
19/11:30pm 15.3 16.1 13.7 90 0.9 WSW 2 7 1 4 1017.7 1017.7 0.0
19/11:00pm 15.8 16.8 14.3 91 0.9 WSW 2 6 1 3 1017.8 1017.8 0.0
19/10:30pm 15.8 16.8 14.3 91 0.9 WSW 2 7 1 4 1018.2 1018.2 0.0
19/10:00pm 15.9 16.9 14.3 90 0.9 WSW 2 7 1 4 1018.2 1018.2 0.0
19/09:30pm 16.2 16.4 14.6 90 0.9 WSW 7 11 4 6 1018.1 1018.1 0.0
19/09:00pm 16.4 15.9 14.9 91 0.9 WSW 11 13 6 7 1018.1 1018.1 0.0
19/08:30pm 16.7 17.1 14.7 88 1.1 SW 6 9 3 5 1017.9 1017.9 0.0
19/08:00pm 16.8 18.2 14.4 86 1.4 CALM 0 6 0 3 1017.9 1017.9 0.0
19/07:30pm 17.5 17.5 15.1 86 1.4 SW 9 11 5 6 1017.6 1017.6 0.0
19/07:00pm 17.4 17.7 15.0 86 1.4 SW 7 9 4 5 1017.5 1017.5 0.0
19/06:30pm 18.6 18.4 15.7 83 1.7 WSW 11 13 6 7 1017.3 1017.3 0.0
19/06:00pm 18.7 18.9 14.6 77 2.4 S 7 11 4 6 1016.9 1016.9 0.0
19/05:30pm 19.8 19.6 13.7 68 3.5 SSE 7 9 4 5 1016.6 1016.5 0.0
19/05:00pm 21.2 20.2 14.6 66 3.9 SSE 13 20 7 11 1016.5 1016.4 0.0
19/04:30pm 22.3 20.5 14.4 61 4.6 SE 17 20 9 11 1016.3 1016.2 0.0
19/04:00pm 22.8 20.6 14.9 61 4.7 SE 20 28 11 15 1016.2 1016.1 0.0
19/03:30pm 23.2 21.0 14.5 58 5.1 SE 19 28 10 15 1016.1 1016.0 0.0
19/03:00pm 23.2 20.5 14.5 58 5.1 ESE 22 28 12 15 1016.0 1015.9 0.0
19/02:30pm 23.5 20.4 14.5 57 5.3 ESE 24 32 13 17 1016.1 1016.0 0.0
19/02:00pm 23.9 21.2 14.6 56 5.5 ESE 22 30 12 16 1016.0 1015.9 0.0
19/01:30pm 23.4 20.7 13.6 54 5.7 ESE 20 28 11 15 1016.1 1016.0 0.0
19/01:00pm 23.7 21.7 13.8 53 5.8 SSE 17 20 9 11 1016.4 1016.3 0.0
19/12:30pm 24.0 22.3 13.5 52 6.1 SE 15 22 8 12 1016.6 1016.5 0.0
19/12:00pm 24.4 23.0 13.3 50 6.4 SSE 13 20 7 11 1016.9 1016.9 0.0
19/11:30am 23.4 21.8 12.7 51 6.1 S 13 19 7 10 1017.5 1017.5 0.0
19/11:00am 23.4 21.8 13.8 54 5.6 S 15 22 8 12 1018.1 1018.1 0.0
19/10:30am 22.6 20.2 13.7 57 5.2 S 19 28 10 15 1018.3 1018.3 0.0
19/10:00am 22.5 20.6 14.1 59 4.9 SSW 17 24 9 13 1018.5 1018.5 0.0
19/09:30am 21.8 20.0 13.4 59 4.8 SSW 15 22 8 12 1018.6 1018.6 0.0
19/09:00am 21.0 18.6 12.7 59 4.7 SSW 17 26 9 14 1018.7 1018.7 0.0
19/08:30am 20.5 17.7 12.5 60 4.5 SSW 19 26 10 14 1018.6 1018.6 0.0
19/08:00am 19.8 17.2 12.1 61 4.3 SSW 17 28 9 15 1018.4 1018.4 0.0
19/07:30am 19.0 16.4 12.0 64 3.9 SSW 17 26 9 14 1018.3 1018.3 0.0
19/07:00am 18.0 15.3 11.8 67 3.4 SW 17 24 9 13 1018.0 1018.0 0.0
19/06:30am 17.1 14.8 11.8 71 2.9 SSW 15 22 8 12 1017.8 1017.8 0.0
19/06:00am 16.8 14.5 11.7 72 2.8 SSW 15 20 8 11 1017.7 1017.7 0.0
19/05:30am 16.9 14.6 11.8 72 2.8 SW 15 24 8 13 1017.5 1017.5 0.0
19/05:00am 16.8 14.2 12.1 74 2.6 SSW 17 22 9 12 1017.3 1017.3 0.0
19/04:30am 17.1 14.6 12.4 74 2.6 SSW 17 22 9 12 1017.1 1017.1 0.0
19/04:00am 17.4 15.0 12.5 73 2.7 SSW 17 26 9 14 1017.0 1017.0 0.0
19/03:30am 17.6 15.2 12.5 72 2.8 SSW 17 26 9 14 1016.9 1016.9 0.0
19/03:00am 17.5 15.5 12.6 73 2.7 SW 15 20 8 11 1016.9 1016.9 0.0
19/02:30am 17.7 15.3 12.8 73 2.7 SSW 17 24 9 13 1016.9 1016.9 0.0
19/02:00am 17.8 16.3 13.1 74 2.6 SSW 13 22 7 12 1017.0 1017.0 0.0
19/01:30am 18.0 16.1 13.1 73 2.8 SW 15 20 8 11 1017.3 1017.3 0.0
19/01:00am 18.0 16.1 13.1 73 2.7 SW 15 22 8 12 1017.5 1017.5 0.0
19/12:30am 18.1 15.9 13.2 73 2.8 SW 17 26 9 14 1017.7 1017.7 0.0
19/12:00am 17.8 15.9 13.1 74 2.6 SW 15 20 8 11 1017.7 1017.7 0.0
 
Date/Time
EST
Temp
°C
App
Temp
°C
Dew
Point
°C
Rel
Hum
%
Delta-T
°C
Wind Press
QNH
hPa
Press
MSL
hPa
Rain since
9am
mm
Dir  Spd
km/h
Gust
km/h
Spd
kts
Gust
kts
18/11:30pm 17.1 16.4 13.2 78 2.2 SW 9 13 5 7 1017.9 1017.9 0.0
18/11:00pm 17.4 16.3 13.1 76 2.4 SSW 11 15 6 8 1018.1 1018.1 0.0
18/10:30pm 17.4 16.7 13.3 77 2.3 SW 9 13 5 7 1018.1 1018.1 0.0
18/10:00pm 17.7 16.6 13.0 74 2.6 SSW 11 17 6 9 1018.2 1018.2 0.0
18/09:30pm 18.2 17.2 13.3 73 2.8 SSW 11 19 6 10 1018.3 1018.3 0.0
18/09:00pm 18.2 17.2 13.3 73 2.8 SSW 11 15 6 8 1018.4 1018.4 0.0
18/08:30pm 18.4 17.0 13.3 72 2.9 SSW 13 19 7 10 1018.5 1018.5 0.0
18/08:00pm 18.5 16.7 13.4 72 2.9 SSW 15 20 8 11 1018.3 1018.3 0.0
18/07:30pm 18.7 17.0 13.6 72 2.9 SSW 15 20 8 11 1018.0 1018.0 0.0
18/07:00pm 19.2 17.2 13.8 71 3.1 S 17 24 9 13 1017.7 1017.7 0.0
18/06:30pm 19.5 17.0 13.4 68 3.5 S 19 28 10 15 1017.5 1017.5 0.0
18/06:00pm 19.1 17.0 13.5 70 3.2 S 17 22 9 12 1017.1 1017.1 0.0
18/05:30pm 19.6 17.9 13.5 68 3.5 S 15 20 8 11 1016.7 1016.7 0.0
18/05:00pm 20.5 17.5 12.7 61 4.4 S 20 26 11 14 1016.4 1016.3 0.0
18/04:30pm 21.1 17.3 12.5 58 4.9 S 24 32 13 17 1016.1 1016.0 0.0
18/04:00pm 22.6 20.6 12.8 54 5.6 SSW 15 20 8 11 1015.8 1015.7 0.0
18/03:30pm 22.9 20.0 12.2 51 6.1 S 19 30 10 16 1015.9 1015.8 0.0
18/03:00pm 23.0 19.9 12.3 51 6.1 S 20 32 11 17 1015.8 1015.7 0.0
18/02:30pm 23.0 20.0 12.6 52 5.9 S 20 26 11 14 1015.8 1015.7 0.0
18/02:00pm 23.1 20.1 12.7 52 5.9 S 20 28 11 15 1016.1 1016.0 0.0
18/01:30pm 22.4 19.5 12.4 53 5.7 SSE 19 24 10 13 1016.3 1016.2 0.0
18/01:00pm 23.2 20.2 11.9 49 6.4 SW 19 26 10 14 1016.4 1016.3 0.0
18/12:30pm 23.4 21.3 13.6 54 5.7 SSW 17 22 9 12 1016.5 1016.4 0.0
18/12:00pm 22.8 20.8 12.7 53 5.8 SSW 15 26 8 14 1016.9 1016.9 0.0
18/11:30am 22.4 19.6 12.6 54 5.6 SSW 19 30 10 16 1017.3 1017.3 0.0
18/11:00am 22.1 18.7 12.6 55 5.4 S 22 35 12 19 1017.7 1017.7 0.0
18/10:30am 21.5 18.1 12.6 57 5.0 SSW 22 30 12 16 1018.0 1018.0 0.0
18/10:00am 20.9 17.4 12.3 58 4.8 S 22 32 12 17 1018.2 1018.2 0.0
18/09:30am 20.5 17.7 12.5 60 4.5 SSW 19 30 10 16 1018.2 1018.2 0.0
18/09:00am 19.7 16.7 12.7 64 3.9 SSW 20 32 11 17 1018.1 1018.1 1.4
18/08:30am 19.1 16.3 12.6 66 3.6 SSW 19 30 10 16 1018.0 1018.0 1.4
18/08:00am 18.5 15.7 12.5 68 3.3 SSW 19 26 10 14 1018.0 1018.0 1.4
18/07:30am 17.6 14.5 12.1 70 3.0 SSW 20 28 11 15 1017.9 1017.9 1.4
18/07:00am 16.9 14.4 12.2 74 2.6 SSW 17 28 9 15 1017.6 1017.6 1.4
18/06:30am 16.0 14.1 11.8 76 2.3 SSW 13 24 7 13 1017.5 1017.5 1.4
18/06:00am 16.1 13.0 11.7 75 2.4 SW 19 28 10 15 1017.2 1017.2 1.4
18/05:30am 16.0 13.0 11.8 76 2.3 SW 19 28 10 15 1017.2 1017.2 1.4
18/05:00am 16.2 13.2 11.8 75 2.4 SSW 19 28 10 15 1017.0 1017.0 1.4
18/04:30am 16.2 13.2 12.0 76 2.3 SSW 19 28 10 15 1016.9 1016.9 1.4
18/04:00am 16.4 13.0 12.4 77 2.2 SSW 22 30 12 16 1016.6 1016.5 1.4
18/03:30am 16.4 13.4 12.6 78 2.1 SSW 20 30 11 16 1016.7 1016.7 1.4
18/03:00am 16.5 13.8 12.8 79 2.0 SSW 19 30 10 16 1016.8 1016.8 1.4
18/02:30am 16.5 13.2 12.8 79 2.1 SSW 22 32 12 17 1016.8 1016.8 1.4
18/02:00am 16.3 13.6 13.0 81 1.8 SSW 19 30 10 16 1017.1 1017.1 1.4
18/01:30am 16.2 13.0 13.1 82 1.7 SSW 22 32 12 17 1017.3 1017.3 1.4
18/01:00am 16.2 13.4 13.1 82 1.7 SSW 20 32 11 17 1017.6 1017.6 1.4
18/12:30am 16.1 13.3 13.2 83 1.6 SSW 20 35 11 19 1017.9 1017.9 1.4
18/12:00am 15.8 13.3 13.5 86 1.3 SSW 19 32 10 17 1018.2 1018.2 1.4
 
Date/Time
EST
Temp
°C
App
Temp
°C
Dew
Point
°C
Rel
Hum
%
Delta-T
°C
Wind Press
QNH
hPa
Press
MSL
hPa
Rain since
9am
mm
Dir  Spd
km/h
Gust
km/h
Spd
kts
Gust
kts
17/11:30pm 16.0 13.3 13.5 85 1.4 SSW 20 30 11 16 1018.2 1018.2 1.4
17/11:00pm 15.8 13.1 13.6 87 1.2 SSW 20 28 11 15 1018.3 1018.3 1.4
17/10:30pm 15.8 13.7 13.6 87 1.2 SSW 17 24 9 13 1018.7 1018.7 1.4
17/10:00pm 15.8 13.8 14.0 89 1.0 SSW 17 26 9 14 1019.0 1019.0 1.4
17/09:30pm 15.8 13.5 14.2 90 0.9 SSW 19 26 10 14 1019.1 1019.1 1.2
17/09:00pm 16.0 14.2 14.4 90 0.9 SW 17 24 9 13 1019.5 1019.5 1.0
17/08:30pm 15.9 13.0 14.1 89 1.0 SSW 22 32 12 17 1019.4 1019.4 0.8
17/08:00pm 16.6 13.5 14.6 88 1.1 SSW 24 41 13 22 1019.5 1019.5 0.8
17/07:48pm 17.3 14.7 14.9 86 1.4 SSW 22 33 12 18 1019.3 1019.3 0.8
17/07:40pm 18.0 15.2 15.4 85 1.5 S 24 37 13 20 1019.1 1019.1 0.8
17/07:30pm 18.3 14.7 15.2 82 1.8 S 28 37 15 20 1018.8 1018.8 0.6
17/07:28pm 18.3 15.1 15.2 82 1.8 SSE 26 37 14 20 1018.8 1018.8 0.6
17/07:00pm 19.1 18.8 17.4 90 1.0 S 15 20 8 11 1018.3 1018.3 0.6
17/06:30pm 19.1 19.1 17.2 89 1.2 SSW 13 17 7 9 1017.8 1017.8 0.6
17/06:00pm 19.3 18.5 17.1 87 1.3 S 17 26 9 14 1017.3 1017.3 0.6
17/05:30pm 19.2 19.1 17.0 87 1.3 S 13 17 7 9 1017.4 1017.4 0.6
17/05:00pm 20.0 20.8 17.4 85 1.6 S 9 15 5 8 1017.2 1017.2 0.4
17/04:30pm 20.3 21.0 17.1 82 1.9 SSE 9 13 5 7 1016.9 1016.9 0.2

Other formats

Comma delimited format used in spreadsheet applications
http://www.bom.gov.au/fwo/IDN60801/IDN60801.94592.axf

JavaScript Object Notation format (JSON) in row-major order
http://www.bom.gov.au/fwo/IDN60801/IDN60801.94592.json

Data quality

Most of these data are generated automatically and are frequently updated. Quality checks on data are not normally performed. It is possible for incorrect values to appear. Refer to information at About Latest Weather Observations and please check the disclaimer before using these data.